sensor_id;sensor_type;location;lat;lon;timestamp;temperature;humidity
20654;DHT22;21083;50.898;4.902;2023-02-22T00:01:10;6.80;99.90
20654;DHT22;21083;50.898;4.902;2023-02-22T00:03:50;6.80;99.90
20654;DHT22;21083;50.898;4.902;2023-02-22T00:06:18;6.80;99.90
20654;DHT22;21083;50.898;4.902;2023-02-22T00:08:46;6.90;99.90
20654;DHT22;21083;50.898;4.902;2023-02-22T00:11:15;6.80;99.90
20654;DHT22;21083;50.898;4.902;2023-02-22T00:13:43;6.80;99.90
20654;DHT22;21083;50.898;4.902;2023-02-22T00:16:14;6.80;99.90
20654;DHT22;21083;50.898;4.902;2023-02-22T00:18:42;6.80;99.90
20654;DHT22;21083;50.898;4.902;2023-02-22T00:21:11;6.80;99.90
20654;DHT22;21083;50.898;4.902;2023-02-22T00:23:40;6.80;99.90
20654;DHT22;21083;50.898;4.902;2023-02-22T00:26:11;6.80;99.90
20654;DHT22;21083;50.898;4.902;2023-02-22T00:28:45;6.80;99.90
20654;DHT22;21083;50.898;4.902;2023-02-22T00:31:12;6.80;99.90
20654;DHT22;21083;50.898;4.902;2023-02-22T00:33:39;6.80;99.90
20654;DHT22;21083;50.898;4.902;2023-02-22T00:36:08;6.80;99.90
20654;DHT22;21083;50.898;4.902;2023-02-22T00:38:35;6.80;99.90
20654;DHT22;21083;50.898;4.902;2023-02-22T00:41:02;6.70;99.90
20654;DHT22;21083;50.898;4.902;2023-02-22T00:43:29;6.80;99.90
20654;DHT22;21083;50.898;4.902;2023-02-22T00:45:57;6.80;99.90
20654;DHT22;21083;50.898;4.902;2023-02-22T00:48:24;6.70;99.90
20654;DHT22;21083;50.898;4.902;2023-02-22T00:50:51;6.80;99.90
20654;DHT22;21083;50.898;4.902;2023-02-22T00:53:20;6.70;99.90
20654;DHT22;21083;50.898;4.902;2023-02-22T00:55:47;6.70;99.90
20654;DHT22;21083;50.898;4.902;2023-02-22T00:58:15;6.70;99.90
20654;DHT22;21083;50.898;4.902;2023-02-22T01:00:42;6.70;99.90
20654;DHT22;21083;50.898;4.902;2023-02-22T01:03:12;6.70;99.90
20654;DHT22;21083;50.898;4.902;2023-02-22T01:05:39;6.70;99.90
20654;DHT22;21083;50.898;4.902;2023-02-22T01:08:08;6.70;99.90
20654;DHT22;21083;50.898;4.902;2023-02-22T01:10:36;6.70;99.90
20654;DHT22;21083;50.898;4.902;2023-02-22T01:13:04;6.70;99.90
20654;DHT22;21083;50.898;4.902;2023-02-22T01:15:34;6.80;99.90
20654;DHT22;21083;50.898;4.902;2023-02-22T01:18:01;6.70;99.90
20654;DHT22;21083;50.898;4.902;2023-02-22T01:20:31;6.70;99.90
20654;DHT22;21083;50.898;4.902;2023-02-22T01:23:00;6.70;99.90
20654;DHT22;21083;50.898;4.902;2023-02-22T01:25:29;6.60;99.90
20654;DHT22;21083;50.898;4.902;2023-02-22T01:27:57;6.50;99.90
20654;DHT22;21083;50.898;4.902;2023-02-22T01:30:26;6.50;99.90
20654;DHT22;21083;50.898;4.902;2023-02-22T01:32:55;6.50;99.90
20654;DHT22;21083;50.898;4.902;2023-02-22T01:35:24;6.50;99.90
20654;DHT22;21083;50.898;4.902;2023-02-22T01:37:54;6.50;99.90
20654;DHT22;21083;50.898;4.902;2023-02-22T01:40:24;6.50;99.90
20654;DHT22;21083;50.898;4.902;2023-02-22T01:42:54;6.50;99.90
20654;DHT22;21083;50.898;4.902;2023-02-22T01:45:47;6.50;99.90
20654;DHT22;21083;50.898;4.902;2023-02-22T01:48:19;6.50;99.90
20654;DHT22;21083;50.898;4.902;2023-02-22T01:50:52;6.50;99.90
20654;DHT22;21083;50.898;4.902;2023-02-22T01:53:25;6.40;99.90
20654;DHT22;21083;50.898;4.902;2023-02-22T01:55:53;6.30;99.90
20654;DHT22;21083;50.898;4.902;2023-02-22T01:58:22;6.30;99.90
20654;DHT22;21083;50.898;4.902;2023-02-22T02:00:50;6.30;99.90
20654;DHT22;21083;50.898;4.902;2023-02-22T02:03:19;6.20;99.90
20654;DHT22;21083;50.898;4.902;2023-02-22T02:05:49;6.20;99.90
20654;DHT22;21083;50.898;4.902;2023-02-22T02:08:28;6.20;99.90
20654;DHT22;21083;50.898;4.902;2023-02-22T02:10:56;6.20;99.90
20654;DHT22;21083;50.898;4.902;2023-02-22T02:13:24;6.20;99.90
20654;DHT22;21083;50.898;4.902;2023-02-22T02:15:53;6.10;99.90
20654;DHT22;21083;50.898;4.902;2023-02-22T02:18:22;6.10;99.90
20654;DHT22;21083;50.898;4.902;2023-02-22T02:21:06;6.00;99.90
20654;DHT22;21083;50.898;4.902;2023-02-22T02:24:03;6.00;99.90
20654;DHT22;21083;50.898;4.902;2023-02-22T02:26:48;6.00;99.90
20654;DHT22;21083;50.898;4.902;2023-02-22T02:32:43;5.90;99.90
20654;DHT22;21083;50.898;4.902;2023-02-22T02:35:18;6.00;99.90
20654;DHT22;21083;50.898;4.902;2023-02-22T02:37:52;5.90;99.90
20654;DHT22;21083;50.898;4.902;2023-02-22T02:40:26;5.90;99.90
20654;DHT22;21083;50.898;4.902;2023-02-22T02:42:59;5.80;99.90
20654;DHT22;21083;50.898;4.902;2023-02-22T02:45:32;5.80;99.90
20654;DHT22;21083;50.898;4.902;2023-02-22T02:48:05;5.80;99.90
20654;DHT22;21083;50.898;4.902;2023-02-22T02:50:38;5.90;99.90
20654;DHT22;21083;50.898;4.902;2023-02-22T02:53:08;5.80;99.90
20654;DHT22;21083;50.898;4.902;2023-02-22T02:55:36;5.80;99.90
20654;DHT22;21083;50.898;4.902;2023-02-22T02:58:03;5.80;99.90
20654;DHT22;21083;50.898;4.902;2023-02-22T03:00:33;5.80;99.90
20654;DHT22;21083;50.898;4.902;2023-02-22T03:03:33;5.70;99.90
20654;DHT22;21083;50.898;4.902;2023-02-22T03:06:15;5.80;99.90
20654;DHT22;21083;50.898;4.902;2023-02-22T03:08:51;5.60;99.90
20654;DHT22;21083;50.898;4.902;2023-02-22T03:11:20;5.60;99.90
20654;DHT22;21083;50.898;4.902;2023-02-22T03:13:58;5.50;99.90
20654;DHT22;21083;50.898;4.902;2023-02-22T03:16:32;5.50;99.90
20654;DHT22;21083;50.898;4.902;2023-02-22T03:19:04;5.50;99.90
20654;DHT22;21083;50.898;4.902;2023-02-22T03:21:40;5.40;99.90
20654;DHT22;21083;50.898;4.902;2023-02-22T03:24:13;5.50;99.90
20654;DHT22;21083;50.898;4.902;2023-02-22T03:26:48;5.40;99.90
20654;DHT22;21083;50.898;4.902;2023-02-22T03:29:19;5.40;99.90
20654;DHT22;21083;50.898;4.902;2023-02-22T03:31:52;5.40;99.90
20654;DHT22;21083;50.898;4.902;2023-02-22T03:34:23;5.40;99.90
20654;DHT22;21083;50.898;4.902;2023-02-22T03:36:55;5.30;99.90
20654;DHT22;21083;50.898;4.902;2023-02-22T03:39:24;5.30;99.90
20654;DHT22;21083;50.898;4.902;2023-02-22T03:41:57;5.30;99.90
20654;DHT22;21083;50.898;4.902;2023-02-22T03:44:28;5.20;99.90
20654;DHT22;21083;50.898;4.902;2023-02-22T03:47:01;5.20;99.90
20654;DHT22;21083;50.898;4.902;2023-02-22T03:49:35;5.30;99.90
20654;DHT22;21083;50.898;4.902;2023-02-22T03:52:04;5.30;99.90
20654;DHT22;21083;50.898;4.902;2023-02-22T03:54:32;5.30;99.90
20654;DHT22;21083;50.898;4.902;2023-02-22T03:57:05;5.20;99.90
20654;DHT22;21083;50.898;4.902;2023-02-22T03:59:33;5.20;99.90
20654;DHT22;21083;50.898;4.902;2023-02-22T04:02:00;5.10;99.90
20654;DHT22;21083;50.898;4.902;2023-02-22T04:04:27;5.10;99.90
20654;DHT22;21083;50.898;4.902;2023-02-22T04:06:56;5.10;99.90
20654;DHT22;21083;50.898;4.902;2023-02-22T04:09:22;5.10;99.90
20654;DHT22;21083;50.898;4.902;2023-02-22T04:11:49;5.10;99.90
20654;DHT22;21083;50.898;4.902;2023-02-22T04:14:16;5.10;99.90
20654;DHT22;21083;50.898;4.902;2023-02-22T04:16:43;5.10;99.90
20654;DHT22;21083;50.898;4.902;2023-02-22T04:19:10;5.10;99.90
20654;DHT22;21083;50.898;4.902;2023-02-22T04:21:37;5.20;99.90
20654;DHT22;21083;50.898;4.902;2023-02-22T04:24:06;5.20;99.90
20654;DHT22;21083;50.898;4.902;2023-02-22T04:26:33;5.20;99.90
20654;DHT22;21083;50.898;4.902;2023-02-22T04:28:59;5.20;99.90
20654;DHT22;21083;50.898;4.902;2023-02-22T04:31:26;5.10;99.90
20654;DHT22;21083;50.898;4.902;2023-02-22T04:33:53;5.10;99.90
20654;DHT22;21083;50.898;4.902;2023-02-22T04:36:20;5.00;99.90
20654;DHT22;21083;50.898;4.902;2023-02-22T04:38:47;5.00;99.90
20654;DHT22;21083;50.898;4.902;2023-02-22T04:41:17;5.00;99.90
20654;DHT22;21083;50.898;4.902;2023-02-22T04:43:45;5.00;99.90
20654;DHT22;21083;50.898;4.902;2023-02-22T04:46:12;5.00;99.90
20654;DHT22;21083;50.898;4.902;2023-02-22T04:48:39;5.00;99.90
20654;DHT22;21083;50.898;4.902;2023-02-22T04:51:06;5.00;99.90
20654;DHT22;21083;50.898;4.902;2023-02-22T04:53:34;5.10;99.90
20654;DHT22;21083;50.898;4.902;2023-02-22T04:56:01;5.00;99.90
20654;DHT22;21083;50.898;4.902;2023-02-22T04:58:29;5.00;99.90
20654;DHT22;21083;50.898;4.902;2023-02-22T05:00:56;5.00;99.90
20654;DHT22;21083;50.898;4.902;2023-02-22T05:03:23;5.00;99.90
20654;DHT22;21083;50.898;4.902;2023-02-22T05:05:51;5.00;99.90
20654;DHT22;21083;50.898;4.902;2023-02-22T05:08:18;5.10;99.90
20654;DHT22;21083;50.898;4.902;2023-02-22T05:10:44;5.00;99.90
20654;DHT22;21083;50.898;4.902;2023-02-22T05:13:11;5.00;99.90
20654;DHT22;21083;50.898;4.902;2023-02-22T05:15:40;5.00;99.90
20654;DHT22;21083;50.898;4.902;2023-02-22T05:18:07;5.00;99.90
20654;DHT22;21083;50.898;4.902;2023-02-22T05:20:34;5.00;99.90
20654;DHT22;21083;50.898;4.902;2023-02-22T05:23:02;5.00;99.90
20654;DHT22;21083;50.898;4.902;2023-02-22T05:25:30;5.00;99.90
20654;DHT22;21083;50.898;4.902;2023-02-22T05:27:59;4.90;99.90
20654;DHT22;21083;50.898;4.902;2023-02-22T05:30:28;5.00;99.90
20654;DHT22;21083;50.898;4.902;2023-02-22T05:32:58;5.00;99.90
20654;DHT22;21083;50.898;4.902;2023-02-22T05:35:25;5.00;99.90
20654;DHT22;21083;50.898;4.902;2023-02-22T05:37:53;4.90;99.90
20654;DHT22;21083;50.898;4.902;2023-02-22T05:40:22;4.90;99.90
20654;DHT22;21083;50.898;4.902;2023-02-22T05:42:51;4.90;99.90
20654;DHT22;21083;50.898;4.902;2023-02-22T05:45:21;4.90;99.90
20654;DHT22;21083;50.898;4.902;2023-02-22T05:47:48;4.90;99.90
20654;DHT22;21083;50.898;4.902;2023-02-22T05:50:18;4.90;99.90
20654;DHT22;21083;50.898;4.902;2023-02-22T05:52:45;5.00;99.90
20654;DHT22;21083;50.898;4.902;2023-02-22T05:55:14;4.90;99.90
20654;DHT22;21083;50.898;4.902;2023-02-22T05:57:41;5.00;99.90
20654;DHT22;21083;50.898;4.902;2023-02-22T06:00:10;4.90;99.90
20654;DHT22;21083;50.898;4.902;2023-02-22T06:02:37;5.00;99.90
20654;DHT22;21083;50.898;4.902;2023-02-22T06:05:04;5.00;99.90
20654;DHT22;21083;50.898;4.902;2023-02-22T06:07:32;5.00;99.90
20654;DHT22;21083;50.898;4.902;2023-02-22T06:09:59;5.00;99.90
20654;DHT22;21083;50.898;4.902;2023-02-22T06:12:26;4.90;99.90
20654;DHT22;21083;50.898;4.902;2023-02-22T06:14:53;4.90;99.90
20654;DHT22;21083;50.898;4.902;2023-02-22T06:17:19;4.90;99.90
20654;DHT22;21083;50.898;4.902;2023-02-22T06:19:46;4.90;99.90
20654;DHT22;21083;50.898;4.902;2023-02-22T06:22:16;4.90;99.90
20654;DHT22;21083;50.898;4.902;2023-02-22T06:24:45;4.90;99.90
20654;DHT22;21083;50.898;4.902;2023-02-22T06:27:14;4.90;99.90
20654;DHT22;21083;50.898;4.902;2023-02-22T06:29:44;5.00;99.90
20654;DHT22;21083;50.898;4.902;2023-02-22T06:32:12;5.00;99.90
20654;DHT22;21083;50.898;4.902;2023-02-22T06:34:38;5.00;99.90
20654;DHT22;21083;50.898;4.902;2023-02-22T06:37:06;5.00;99.90
20654;DHT22;21083;50.898;4.902;2023-02-22T06:39:33;4.90;99.90
20654;DHT22;21083;50.898;4.902;2023-02-22T06:42:02;4.90;99.90
20654;DHT22;21083;50.898;4.902;2023-02-22T06:44:29;4.90;99.90
20654;DHT22;21083;50.898;4.902;2023-02-22T06:46:55;4.90;99.90
20654;DHT22;21083;50.898;4.902;2023-02-22T06:49:25;4.90;99.90
20654;DHT22;21083;50.898;4.902;2023-02-22T06:51:52;4.90;99.90
20654;DHT22;21083;50.898;4.902;2023-02-22T06:54:19;4.90;99.90
20654;DHT22;21083;50.898;4.902;2023-02-22T06:56:46;4.90;99.90
20654;DHT22;21083;50.898;4.902;2023-02-22T06:59:15;4.90;99.90
20654;DHT22;21083;50.898;4.902;2023-02-22T07:01:42;4.90;99.90
20654;DHT22;21083;50.898;4.902;2023-02-22T07:04:09;4.90;99.90
20654;DHT22;21083;50.898;4.902;2023-02-22T07:06:37;5.00;99.90
20654;DHT22;21083;50.898;4.902;2023-02-22T07:09:04;5.00;99.90
20654;DHT22;21083;50.898;4.902;2023-02-22T07:11:31;5.00;99.90
20654;DHT22;21083;50.898;4.902;2023-02-22T07:13:58;5.00;99.90
20654;DHT22;21083;50.898;4.902;2023-02-22T07:16:26;5.00;99.90
20654;DHT22;21083;50.898;4.902;2023-02-22T07:18:53;5.00;99.90
20654;DHT22;21083;50.898;4.902;2023-02-22T07:21:19;5.00;99.90
20654;DHT22;21083;50.898;4.902;2023-02-22T07:23:51;5.00;99.90
20654;DHT22;21083;50.898;4.902;2023-02-22T07:26:18;5.00;99.90
20654;DHT22;21083;50.898;4.902;2023-02-22T07:28:45;5.10;99.90
20654;DHT22;21083;50.898;4.902;2023-02-22T07:31:12;5.10;99.90
20654;DHT22;21083;50.898;4.902;2023-02-22T07:33:40;5.10;99.90
20654;DHT22;21083;50.898;4.902;2023-02-22T07:36:08;5.20;99.90
20654;DHT22;21083;50.898;4.902;2023-02-22T07:38:35;5.30;99.90
20654;DHT22;21083;50.898;4.902;2023-02-22T07:41:01;5.30;99.90
20654;DHT22;21083;50.898;4.902;2023-02-22T07:43:29;5.30;99.90
20654;DHT22;21083;50.898;4.902;2023-02-22T07:45:57;5.30;99.90
20654;DHT22;21083;50.898;4.902;2023-02-22T07:48:26;5.40;99.90
20654;DHT22;21083;50.898;4.902;2023-02-22T07:50:55;5.40;99.90
20654;DHT22;21083;50.898;4.902;2023-02-22T07:53:24;5.50;99.90
20654;DHT22;21083;50.898;4.902;2023-02-22T07:55:52;5.50;99.90
20654;DHT22;21083;50.898;4.902;2023-02-22T07:58:25;5.50;99.90
20654;DHT22;21083;50.898;4.902;2023-02-22T08:00:53;5.60;99.90
20654;DHT22;21083;50.898;4.902;2023-02-22T08:03:22;5.70;99.90
20654;DHT22;21083;50.898;4.902;2023-02-22T08:05:52;5.70;99.90
20654;DHT22;21083;50.898;4.902;2023-02-22T08:08:21;5.80;99.90
20654;DHT22;21083;50.898;4.902;2023-02-22T08:10:49;5.90;99.90
20654;DHT22;21083;50.898;4.902;2023-02-22T08:13:16;6.00;99.90
20654;DHT22;21083;50.898;4.902;2023-02-22T08:15:43;6.10;99.90
20654;DHT22;21083;50.898;4.902;2023-02-22T08:18:14;6.20;99.90
20654;DHT22;21083;50.898;4.902;2023-02-22T08:20:42;6.30;99.90
20654;DHT22;21083;50.898;4.902;2023-02-22T08:23:11;6.40;99.90
20654;DHT22;21083;50.898;4.902;2023-02-22T08:25:40;6.50;99.90
20654;DHT22;21083;50.898;4.902;2023-02-22T08:28:10;6.60;99.90
20654;DHT22;21083;50.898;4.902;2023-02-22T08:30:38;6.70;99.90
20654;DHT22;21083;50.898;4.902;2023-02-22T08:33:07;6.70;99.90
20654;DHT22;21083;50.898;4.902;2023-02-22T08:35:35;6.80;99.90
20654;DHT22;21083;50.898;4.902;2023-02-22T08:38:04;6.90;99.90
20654;DHT22;21083;50.898;4.902;2023-02-22T08:40:33;6.90;99.90
20654;DHT22;21083;50.898;4.902;2023-02-22T08:43:01;7.00;99.90
20654;DHT22;21083;50.898;4.902;2023-02-22T08:45:29;7.10;99.90
20654;DHT22;21083;50.898;4.902;2023-02-22T08:47:56;7.20;99.90
20654;DHT22;21083;50.898;4.902;2023-02-22T08:50:25;7.30;99.90
20654;DHT22;21083;50.898;4.902;2023-02-22T08:52:53;7.50;99.90
20654;DHT22;21083;50.898;4.902;2023-02-22T08:55:20;7.60;99.90
20654;DHT22;21083;50.898;4.902;2023-02-22T08:57:47;7.70;99.90
20654;DHT22;21083;50.898;4.902;2023-02-22T09:00:17;7.90;99.90
20654;DHT22;21083;50.898;4.902;2023-02-22T09:02:44;8.00;99.90
20654;DHT22;21083;50.898;4.902;2023-02-22T09:05:11;8.10;99.90
20654;DHT22;21083;50.898;4.902;2023-02-22T09:07:40;8.20;99.90
20654;DHT22;21083;50.898;4.902;2023-02-22T09:10:07;8.20;99.90
20654;DHT22;21083;50.898;4.902;2023-02-22T09:12:34;8.40;99.90
20654;DHT22;21083;50.898;4.902;2023-02-22T09:15:01;8.40;99.90
20654;DHT22;21083;50.898;4.902;2023-02-22T09:17:30;8.50;99.90
20654;DHT22;21083;50.898;4.902;2023-02-22T09:19:57;8.60;99.90
20654;DHT22;21083;50.898;4.902;2023-02-22T09:22:23;8.70;99.90
20654;DHT22;21083;50.898;4.902;2023-02-22T09:24:51;8.80;99.90
20654;DHT22;21083;50.898;4.902;2023-02-22T09:27:18;8.90;99.90
20654;DHT22;21083;50.898;4.902;2023-02-22T09:29:47;9.00;99.90
20654;DHT22;21083;50.898;4.902;2023-02-22T09:32:14;9.10;99.90
20654;DHT22;21083;50.898;4.902;2023-02-22T09:34:44;9.10;99.90
20654;DHT22;21083;50.898;4.902;2023-02-22T09:37:12;9.20;99.90
20654;DHT22;21083;50.898;4.902;2023-02-22T09:39:39;9.30;99.90
20654;DHT22;21083;50.898;4.902;2023-02-22T09:42:10;9.40;99.90
20654;DHT22;21083;50.898;4.902;2023-02-22T09:44:41;9.50;99.90
20654;DHT22;21083;50.898;4.902;2023-02-22T09:47:14;9.60;99.90
20654;DHT22;21083;50.898;4.902;2023-02-22T09:49:53;9.70;99.90
20654;DHT22;21083;50.898;4.902;2023-02-22T09:52:25;9.80;99.90
20654;DHT22;21083;50.898;4.902;2023-02-22T09:54:56;9.80;99.90
20654;DHT22;21083;50.898;4.902;2023-02-22T09:57:32;9.70;99.90
20654;DHT22;21083;50.898;4.902;2023-02-22T10:00:03;9.80;99.90
20654;DHT22;21083;50.898;4.902;2023-02-22T10:02:43;9.90;99.90
20654;DHT22;21083;50.898;4.902;2023-02-22T10:05:18;9.60;99.90
20654;DHT22;21083;50.898;4.902;2023-02-22T10:07:50;9.40;99.90
20654;DHT22;21083;50.898;4.902;2023-02-22T10:10:21;9.30;99.90
20654;DHT22;21083;50.898;4.902;2023-02-22T10:12:57;9.40;99.90
20654;DHT22;21083;50.898;4.902;2023-02-22T10:15:35;9.60;99.90
20654;DHT22;21083;50.898;4.902;2023-02-22T10:18:37;9.50;99.90
20654;DHT22;21083;50.898;4.902;2023-02-22T10:21:19;9.60;99.90
20654;DHT22;21083;50.898;4.902;2023-02-22T10:23:56;9.60;99.90
20654;DHT22;21083;50.898;4.902;2023-02-22T10:26:32;9.70;99.90
20654;DHT22;21083;50.898;4.902;2023-02-22T10:29:04;9.90;99.90
20654;DHT22;21083;50.898;4.902;2023-02-22T10:31:38;9.90;99.90
20654;DHT22;21083;50.898;4.902;2023-02-22T10:34:10;10.00;99.90
20654;DHT22;21083;50.898;4.902;2023-02-22T10:36:41;10.20;99.90
20654;DHT22;21083;50.898;4.902;2023-02-22T10:39:18;10.20;99.90
20654;DHT22;21083;50.898;4.902;2023-02-22T10:41:49;10.20;99.90
20654;DHT22;21083;50.898;4.902;2023-02-22T10:44:18;10.20;99.90
20654;DHT22;21083;50.898;4.902;2023-02-22T10:46:46;10.20;99.90
20654;DHT22;21083;50.898;4.902;2023-02-22T10:49:18;10.20;99.90
20654;DHT22;21083;50.898;4.902;2023-02-22T10:51:56;10.40;99.90
20654;DHT22;21083;50.898;4.902;2023-02-22T10:54:27;10.50;99.90
20654;DHT22;21083;50.898;4.902;2023-02-22T10:56:57;10.50;99.90
20654;DHT22;21083;50.898;4.902;2023-02-22T10:59:30;10.50;99.90
20654;DHT22;21083;50.898;4.902;2023-02-22T11:01:59;10.40;99.90
20654;DHT22;21083;50.898;4.902;2023-02-22T11:04:27;10.40;99.90
20654;DHT22;21083;50.898;4.902;2023-02-22T11:07:15;10.50;99.90
20654;DHT22;21083;50.898;4.902;2023-02-22T11:09:49;10.40;99.90
20654;DHT22;21083;50.898;4.902;2023-02-22T11:12:19;10.50;99.90
20654;DHT22;21083;50.898;4.902;2023-02-22T11:14:47;10.40;99.90
20654;DHT22;21083;50.898;4.902;2023-02-22T11:17:19;10.50;99.90
20654;DHT22;21083;50.898;4.902;2023-02-22T11:19:48;10.60;99.90
20654;DHT22;21083;50.898;4.902;2023-02-22T11:22:24;10.70;99.90
20654;DHT22;21083;50.898;4.902;2023-02-22T11:24:54;10.90;99.90
20654;DHT22;21083;50.898;4.902;2023-02-22T11:27:32;11.00;99.90
20654;DHT22;21083;50.898;4.902;2023-02-22T11:30:11;11.00;99.90
20654;DHT22;21083;50.898;4.902;2023-02-22T11:32:47;11.20;99.90
20654;DHT22;21083;50.898;4.902;2023-02-22T11:35:35;11.30;99.90
20654;DHT22;21083;50.898;4.902;2023-02-22T11:38:15;11.30;99.90
20654;DHT22;21083;50.898;4.902;2023-02-22T11:40:43;11.30;99.90
20654;DHT22;21083;50.898;4.902;2023-02-22T11:43:14;11.30;99.90
20654;DHT22;21083;50.898;4.902;2023-02-22T11:45:59;11.30;99.90
20654;DHT22;21083;50.898;4.902;2023-02-22T11:48:30;11.40;99.90
20654;DHT22;21083;50.898;4.902;2023-02-22T11:51:16;11.40;99.90
20654;DHT22;21083;50.898;4.902;2023-02-22T11:54:09;11.50;99.90
20654;DHT22;21083;50.898;4.902;2023-02-22T11:56:46;11.50;99.90
20654;DHT22;21083;50.898;4.902;2023-02-22T11:59:23;11.50;99.90
20654;DHT22;21083;50.898;4.902;2023-02-22T12:01:53;11.50;99.90
20654;DHT22;21083;50.898;4.902;2023-02-22T12:04:48;11.50;99.90
20654;DHT22;21083;50.898;4.902;2023-02-22T12:07:37;11.50;99.90
20654;DHT22;21083;50.898;4.902;2023-02-22T12:10:17;11.60;99.90
20654;DHT22;21083;50.898;4.902;2023-02-22T12:13:00;11.70;99.90
20654;DHT22;21083;50.898;4.902;2023-02-22T12:15:37;11.60;99.90
20654;DHT22;21083;50.898;4.902;2023-02-22T12:18:13;11.70;99.90
20654;DHT22;21083;50.898;4.902;2023-02-22T12:20:44;11.60;99.90
20654;DHT22;21083;50.898;4.902;2023-02-22T12:23:16;11.70;99.90
20654;DHT22;21083;50.898;4.902;2023-02-22T12:25:54;11.50;99.90
20654;DHT22;21083;50.898;4.902;2023-02-22T12:28:27;11.50;99.90
20654;DHT22;21083;50.898;4.902;2023-02-22T12:31:04;11.60;99.90
20654;DHT22;21083;50.898;4.902;2023-02-22T12:33:47;11.60;99.90
20654;DHT22;21083;50.898;4.902;2023-02-22T12:36:19;11.60;99.90
20654;DHT22;21083;50.898;4.902;2023-02-22T12:38:51;11.60;99.90
20654;DHT22;21083;50.898;4.902;2023-02-22T12:41:26;11.60;99.90
20654;DHT22;21083;50.898;4.902;2023-02-22T12:43:59;11.60;99.90
20654;DHT22;21083;50.898;4.902;2023-02-22T12:46:30;11.50;99.90
20654;DHT22;21083;50.898;4.902;2023-02-22T12:49:03;11.50;99.90
20654;DHT22;21083;50.898;4.902;2023-02-22T12:51:38;11.50;99.90
20654;DHT22;21083;50.898;4.902;2023-02-22T12:54:13;11.50;99.90
20654;DHT22;21083;50.898;4.902;2023-02-22T12:56:48;11.50;99.90
20654;DHT22;21083;50.898;4.902;2023-02-22T12:59:19;11.60;99.90
20654;DHT22;21083;50.898;4.902;2023-02-22T13:01:52;11.60;99.90
20654;DHT22;21083;50.898;4.902;2023-02-22T13:04:20;11.70;99.90
20654;DHT22;21083;50.898;4.902;2023-02-22T13:09:59;11.70;99.90
20654;DHT22;21083;50.898;4.902;2023-02-22T13:12:39;11.70;99.90
20654;DHT22;21083;50.898;4.902;2023-02-22T13:15:13;11.70;99.90
20654;DHT22;21083;50.898;4.902;2023-02-22T13:17:52;11.60;99.90
20654;DHT22;21083;50.898;4.902;2023-02-22T13:20:23;11.50;99.90
20654;DHT22;21083;50.898;4.902;2023-02-22T13:22:56;11.50;99.90
20654;DHT22;21083;50.898;4.902;2023-02-22T13:25:29;11.60;99.90
20654;DHT22;21083;50.898;4.902;2023-02-22T13:28:16;11.70;99.90
20654;DHT22;21083;50.898;4.902;2023-02-22T13:30:51;11.80;99.90
20654;DHT22;21083;50.898;4.902;2023-02-22T13:33:31;11.80;99.90
20654;DHT22;21083;50.898;4.902;2023-02-22T13:36:14;11.80;99.90
20654;DHT22;21083;50.898;4.902;2023-02-22T13:41:59;11.80;99.90
20654;DHT22;21083;50.898;4.902;2023-02-22T13:44:53;11.90;99.90
20654;DHT22;21083;50.898;4.902;2023-02-22T13:47:40;11.90;99.90
20654;DHT22;21083;50.898;4.902;2023-02-22T13:50:34;11.90;99.90
20654;DHT22;21083;50.898;4.902;2023-02-22T13:53:10;11.70;99.90
20654;DHT22;21083;50.898;4.902;2023-02-22T13:55:40;11.70;99.90
20654;DHT22;21083;50.898;4.902;2023-02-22T13:58:09;11.70;99.90
20654;DHT22;21083;50.898;4.902;2023-02-22T14:00:47;11.60;99.90
20654;DHT22;21083;50.898;4.902;2023-02-22T14:03:32;11.70;99.90
20654;DHT22;21083;50.898;4.902;2023-02-22T14:06:10;11.60;99.90
20654;DHT22;21083;50.898;4.902;2023-02-22T14:08:56;11.60;99.90
20654;DHT22;21083;50.898;4.902;2023-02-22T14:11:47;11.40;99.90
20654;DHT22;21083;50.898;4.902;2023-02-22T14:14:19;11.40;99.90
20654;DHT22;21083;50.898;4.902;2023-02-22T14:17:26;11.50;99.90
20654;DHT22;21083;50.898;4.902;2023-02-22T14:20:03;11.50;99.90
20654;DHT22;21083;50.898;4.902;2023-02-22T14:22:39;11.60;99.90
20654;DHT22;21083;50.898;4.902;2023-02-22T14:25:29;11.50;99.90
20654;DHT22;21083;50.898;4.902;2023-02-22T14:27:56;11.60;99.90
20654;DHT22;21083;50.898;4.902;2023-02-22T14:30:26;11.50;99.90
20654;DHT22;21083;50.898;4.902;2023-02-22T14:32:56;11.40;99.90
20654;DHT22;21083;50.898;4.902;2023-02-22T14:35:29;11.40;99.90
20654;DHT22;21083;50.898;4.902;2023-02-22T14:37:59;11.50;99.90
20654;DHT22;21083;50.898;4.902;2023-02-22T14:40:29;11.40;99.90
20654;DHT22;21083;50.898;4.902;2023-02-22T14:43:01;11.50;99.90
20654;DHT22;21083;50.898;4.902;2023-02-22T14:45:31;11.50;99.90
20654;DHT22;21083;50.898;4.902;2023-02-22T14:48:17;11.60;99.90
20654;DHT22;21083;50.898;4.902;2023-02-22T14:50:50;11.60;99.90
20654;DHT22;21083;50.898;4.902;2023-02-22T14:53:23;11.50;99.90
20654;DHT22;21083;50.898;4.902;2023-02-22T14:55:55;11.60;99.90
20654;DHT22;21083;50.898;4.902;2023-02-22T14:58:27;11.40;99.90
20654;DHT22;21083;50.898;4.902;2023-02-22T15:00:55;11.50;99.90
20654;DHT22;21083;50.898;4.902;2023-02-22T15:03:28;11.50;99.90
20654;DHT22;21083;50.898;4.902;2023-02-22T15:06:04;11.60;99.90
20654;DHT22;21083;50.898;4.902;2023-02-22T15:08:32;11.60;99.90
20654;DHT22;21083;50.898;4.902;2023-02-22T15:10:59;11.50;99.90
20654;DHT22;21083;50.898;4.902;2023-02-22T15:13:29;11.50;99.90
20654;DHT22;21083;50.898;4.902;2023-02-22T15:16:00;11.60;99.90
20654;DHT22;21083;50.898;4.902;2023-02-22T15:18:32;11.50;99.90
20654;DHT22;21083;50.898;4.902;2023-02-22T15:21:04;11.50;99.90
20654;DHT22;21083;50.898;4.902;2023-02-22T15:23:40;11.60;99.90
20654;DHT22;21083;50.898;4.902;2023-02-22T15:26:15;11.60;99.90
20654;DHT22;21083;50.898;4.902;2023-02-22T15:28:43;11.60;99.90
20654;DHT22;21083;50.898;4.902;2023-02-22T15:31:16;11.80;99.90
20654;DHT22;21083;50.898;4.902;2023-02-22T15:33:44;11.70;99.90
20654;DHT22;21083;50.898;4.902;2023-02-22T15:36:14;11.60;99.90
20654;DHT22;21083;50.898;4.902;2023-02-22T15:38:47;11.50;99.90
20654;DHT22;21083;50.898;4.902;2023-02-22T15:41:22;11.50;99.90
20654;DHT22;21083;50.898;4.902;2023-02-22T15:44:06;11.60;99.90
20654;DHT22;21083;50.898;4.902;2023-02-22T15:46:36;11.60;99.90
20654;DHT22;21083;50.898;4.902;2023-02-22T15:49:18;11.60;99.90
20654;DHT22;21083;50.898;4.902;2023-02-22T15:51:59;11.60;99.90
20654;DHT22;21083;50.898;4.902;2023-02-22T15:54:27;11.50;99.90
20654;DHT22;21083;50.898;4.902;2023-02-22T15:56:55;11.40;99.90
20654;DHT22;21083;50.898;4.902;2023-02-22T15:59:24;11.40;99.90
20654;DHT22;21083;50.898;4.902;2023-02-22T16:01:56;11.20;99.90
20654;DHT22;21083;50.898;4.902;2023-02-22T16:04:27;11.40;99.90
20654;DHT22;21083;50.898;4.902;2023-02-22T16:07:03;11.30;99.90
20654;DHT22;21083;50.898;4.902;2023-02-22T16:09:45;11.30;99.90
20654;DHT22;21083;50.898;4.902;2023-02-22T16:12:23;11.30;99.90
20654;DHT22;21083;50.898;4.902;2023-02-22T16:14:50;11.30;99.90
20654;DHT22;21083;50.898;4.902;2023-02-22T16:17:32;11.30;99.90